createdAt,value
2024-05-09T00:00:15.468Z,24.29
2024-05-09T00:01:09.709Z,24.29
2024-05-09T00:02:08.720Z,24.29
2024-05-09T00:03:10.162Z,24.29
2024-05-09T00:04:08.800Z,24.28
2024-05-09T00:05:08.814Z,24.29
2024-05-09T00:06:08.718Z,24.28
2024-05-09T00:07:08.859Z,24.28
2024-05-09T00:08:08.728Z,24.28
2024-05-09T00:09:08.685Z,24.28
2024-05-09T00:10:14.682Z,24.28
2024-05-09T00:11:09.803Z,24.27
2024-05-09T00:12:08.938Z,24.27
2024-05-09T00:13:09.120Z,24.28
2024-05-09T00:14:08.735Z,24.27
2024-05-09T00:15:08.671Z,24.28
2024-05-09T00:16:08.686Z,24.28
2024-05-09T00:17:08.742Z,24.28
2024-05-09T00:18:09.006Z,24.28
2024-05-09T00:19:08.794Z,24.28
2024-05-09T00:20:17.414Z,24.28
2024-05-09T00:21:09.907Z,24.28
2024-05-09T00:22:08.706Z,24.28
2024-05-09T00:23:09.251Z,24.28
2024-05-09T00:24:08.721Z,24.27
2024-05-09T00:25:08.779Z,24.27
2024-05-09T00:26:08.768Z,24.28
2024-05-09T00:27:11.276Z,24.28
2024-05-09T00:28:08.724Z,24.27
2024-05-09T00:29:08.839Z,24.27
2024-05-09T00:30:14.265Z,24.27
2024-05-09T00:31:09.757Z,24.26
2024-05-09T00:32:08.872Z,24.26
2024-05-09T00:33:10.374Z,24.27
2024-05-09T00:34:09.260Z,24.27
2024-05-09T00:35:09.147Z,24.26
2024-05-09T00:36:09.094Z,24.27
2024-05-09T00:37:09.096Z,24.26
2024-05-09T00:38:09.170Z,24.26
2024-05-09T00:39:09.134Z,24.26
2024-05-09T00:40:18.253Z,24.27
2024-05-09T00:41:10.226Z,24.26
2024-05-09T00:42:09.252Z,24.26
2024-05-09T00:43:09.205Z,24.26
2024-05-09T00:44:09.378Z,24.26
2024-05-09T00:45:09.216Z,24.26
2024-05-09T00:46:09.207Z,24.26
2024-05-09T00:47:09.472Z,24.26
2024-05-09T00:48:10.495Z,24.25
2024-05-09T00:49:09.387Z,24.25
2024-05-09T00:50:15.465Z,24.26
2024-05-09T00:51:10.378Z,24.25
2024-05-09T00:52:09.237Z,24.25
2024-05-09T00:53:09.263Z,24.25
2024-05-09T00:54:09.227Z,24.25
2024-05-09T00:55:09.221Z,24.25
2024-05-09T00:56:09.316Z,24.25
2024-05-09T00:57:09.224Z,24.26
2024-05-09T00:58:09.302Z,24.25
2024-05-09T00:59:09.327Z,24.25
2024-05-09T01:00:22.167Z,24.26
2024-05-09T01:01:10.249Z,24.24
2024-05-09T01:02:09.375Z,24.25
2024-05-09T01:03:11.032Z,24.25
2024-05-09T01:04:09.491Z,24.25
2024-05-09T01:05:09.324Z,24.25
2024-05-09T01:06:09.279Z,24.24
2024-05-09T01:07:09.248Z,24.25
2024-05-09T01:08:09.846Z,24.24
2024-05-09T01:09:09.256Z,24.24
2024-05-09T01:10:14.312Z,24.24
2024-05-09T01:11:10.368Z,24.24
2024-05-09T01:12:09.548Z,24.24
2024-05-09T01:13:09.274Z,24.23
2024-05-09T01:14:09.397Z,24.24
2024-05-09T01:15:09.268Z,24.24
2024-05-09T01:16:09.284Z,24.24
2024-05-09T01:17:09.337Z,24.24
2024-05-09T01:18:10.001Z,24.24
2024-05-09T01:19:09.379Z,24.24
2024-05-09T01:20:12.898Z,24.24
2024-05-09T01:21:10.434Z,24.22
2024-05-09T01:22:09.284Z,24.23
2024-05-09T01:23:10.043Z,24.23
2024-05-09T01:24:09.265Z,24.22
2024-05-09T01:25:09.277Z,24.24
2024-05-09T01:26:09.321Z,24.24
2024-05-09T01:27:09.296Z,24.24
2024-05-09T01:28:09.284Z,24.24
2024-05-09T01:29:09.383Z,24.23
2024-05-09T01:30:14.598Z,24.23
2024-05-09T01:31:10.302Z,24.22
2024-05-09T01:32:09.391Z,24.23
2024-05-09T01:33:11.215Z,24.23
2024-05-09T01:34:09.475Z,24.22
2024-05-09T01:35:09.394Z,24.22
2024-05-09T01:36:09.291Z,24.23
2024-05-09T01:37:09.336Z,24.22
2024-05-09T01:38:09.360Z,24.23
2024-05-09T01:39:09.308Z,24.23
2024-05-09T01:40:14.838Z,24.22
2024-05-09T01:41:10.313Z,24.21
2024-05-09T01:42:09.321Z,24.21
2024-05-09T01:43:10.576Z,24.22
2024-05-09T01:44:09.348Z,24.21
2024-05-09T01:45:09.331Z,24.21
2024-05-09T01:46:09.313Z,24.21
2024-05-09T01:47:09.566Z,24.21
2024-05-09T01:48:09.783Z,24.22
2024-05-09T01:49:09.451Z,24.21
2024-05-09T01:50:11.118Z,24.21
2024-05-09T01:51:09.669Z,24.21
2024-05-09T01:52:09.516Z,24.22
2024-05-09T01:53:10.066Z,24.20
2024-05-09T01:54:09.586Z,24.20
2024-05-09T01:55:09.657Z,24.20
2024-05-09T01:56:09.797Z,24.21
2024-05-09T01:57:09.734Z,24.20
2024-05-09T01:58:10.123Z,24.21
2024-05-09T01:59:09.922Z,24.20
2024-05-09T02:00:10.504Z,24.20
2024-05-09T02:01:09.962Z,24.20
2024-05-09T02:02:10.163Z,24.20
2024-05-09T02:03:10.932Z,24.20
2024-05-09T02:04:10.188Z,24.20
2024-05-09T02:05:10.142Z,24.20
2024-05-09T02:06:10.168Z,24.20
2024-05-09T02:07:10.012Z,24.20
2024-05-09T02:08:10.062Z,24.19
2024-05-09T02:09:10.016Z,24.19
2024-05-09T02:10:16.416Z,24.19
2024-05-09T02:11:11.219Z,24.18
2024-05-09T02:12:10.119Z,24.19
2024-05-09T02:13:10.100Z,24.19
2024-05-09T02:14:10.082Z,24.19
2024-05-09T02:15:09.995Z,24.18
2024-05-09T02:16:10.052Z,24.19
2024-05-09T02:17:10.127Z,24.18
2024-05-09T02:18:10.548Z,24.19
2024-05-09T02:19:10.162Z,24.18
2024-05-09T02:20:13.279Z,24.18
2024-05-09T02:21:11.126Z,24.18
2024-05-09T02:22:10.087Z,24.18
2024-05-09T02:23:10.194Z,24.17
2024-05-09T02:24:10.024Z,24.18
2024-05-09T02:25:10.078Z,24.18
2024-05-09T02:26:10.113Z,24.18
2024-05-09T02:27:10.072Z,24.18
2024-05-09T02:28:10.079Z,24.18
2024-05-09T02:29:10.072Z,24.18
2024-05-09T02:30:18.692Z,24.18
2024-05-09T02:31:11.055Z,24.17
2024-05-09T02:32:10.163Z,24.17
2024-05-09T02:33:11.982Z,24.17
2024-05-09T02:34:10.135Z,24.17
2024-05-09T02:35:10.192Z,24.17
2024-05-09T02:36:10.047Z,24.17
2024-05-09T02:37:10.061Z,24.17
2024-05-09T02:38:10.458Z,24.17
2024-05-09T02:39:10.048Z,24.17
2024-05-09T02:40:14.597Z,24.16
2024-05-09T02:41:11.196Z,24.15
2024-05-09T02:42:10.077Z,24.16
2024-05-09T02:43:11.304Z,24.16
2024-05-09T02:44:10.117Z,24.16
2024-05-09T02:45:10.061Z,24.16
2024-05-09T02:46:10.115Z,24.16
2024-05-09T02:47:10.161Z,24.16
2024-05-09T02:48:10.289Z,24.17
2024-05-09T02:49:10.172Z,24.17
2024-05-09T02:50:13.303Z,24.17
2024-05-09T02:51:11.361Z,24.16
2024-05-09T02:52:10.122Z,24.17
2024-05-09T02:53:11.040Z,24.17
2024-05-09T02:54:10.142Z,24.16
2024-05-09T02:55:10.111Z,24.16
2024-05-09T02:56:10.188Z,24.16
2024-05-09T02:57:10.166Z,24.16
2024-05-09T02:58:10.336Z,24.16
2024-05-09T02:59:10.170Z,24.16
2024-05-09T03:00:18.308Z,24.16
2024-05-09T03:01:11.187Z,24.15
2024-05-09T03:02:10.332Z,24.15
2024-05-09T03:03:12.410Z,24.15
2024-05-09T03:04:10.224Z,24.15
2024-05-09T03:05:10.168Z,24.15
2024-05-09T03:06:10.164Z,24.15
2024-05-09T03:07:10.167Z,24.15
2024-05-09T03:08:10.200Z,24.15
2024-05-09T03:09:10.164Z,24.15
2024-05-09T03:10:18.271Z,24.15
2024-05-09T03:11:11.255Z,24.14
2024-05-09T03:12:10.285Z,24.14
2024-05-09T03:13:10.147Z,24.15
2024-05-09T03:14:10.242Z,24.14
2024-05-09T03:15:10.140Z,24.14
2024-05-09T03:16:10.143Z,24.14
2024-05-09T03:17:10.200Z,24.14
2024-05-09T03:18:10.333Z,24.14
2024-05-09T03:19:10.320Z,24.13
2024-05-09T03:20:17.513Z,24.14
2024-05-09T03:21:11.258Z,24.13
2024-05-09T03:22:10.170Z,24.13
2024-05-09T03:23:10.518Z,24.13
2024-05-09T03:24:10.189Z,24.13
2024-05-09T03:25:10.202Z,24.13
2024-05-09T03:26:10.222Z,24.13
2024-05-09T03:27:10.179Z,24.13
2024-05-09T03:28:10.225Z,24.13
2024-05-09T03:29:10.241Z,24.12
2024-05-09T03:30:10.213Z,24.13
2024-05-09T03:31:10.220Z,24.13
2024-05-09T03:32:10.236Z,24.12
2024-05-09T03:33:10.508Z,24.13
2024-05-09T03:34:10.331Z,24.12
2024-05-09T03:35:10.338Z,24.13
2024-05-09T03:36:11.414Z,24.13
2024-05-09T03:37:10.409Z,24.13
2024-05-09T03:38:10.530Z,24.13
2024-05-09T03:39:10.502Z,24.12
2024-05-09T03:40:17.559Z,24.12
2024-05-09T03:41:11.554Z,24.12
2024-05-09T03:42:10.542Z,24.11
2024-05-09T03:43:10.540Z,24.12
2024-05-09T03:44:10.576Z,24.12
2024-05-09T03:45:10.536Z,24.12
2024-05-09T03:46:10.548Z,24.12
2024-05-09T03:47:10.593Z,24.12
2024-05-09T03:48:10.773Z,24.11
2024-05-09T03:49:10.732Z,24.12
2024-05-09T03:50:18.156Z,24.12
2024-05-09T03:51:11.545Z,24.11
2024-05-09T03:52:10.532Z,24.11
2024-05-09T03:53:10.739Z,24.12
2024-05-09T03:54:10.541Z,24.11
2024-05-09T03:55:10.546Z,24.12
2024-05-09T03:56:10.651Z,24.12
2024-05-09T03:57:10.535Z,24.11
2024-05-09T03:58:10.536Z,24.11
2024-05-09T03:59:10.657Z,24.11
2024-05-09T04:00:17.815Z,24.10
2024-05-09T04:01:11.602Z,24.10
2024-05-09T04:02:10.661Z,24.11
2024-05-09T04:03:12.507Z,24.10
2024-05-09T04:04:10.600Z,24.10
2024-05-09T04:05:10.594Z,24.10
2024-05-09T04:06:10.549Z,24.10
2024-05-09T04:07:10.595Z,24.10
2024-05-09T04:08:11.237Z,24.10
2024-05-09T04:09:10.587Z,24.09
2024-05-09T04:10:20.592Z,24.09
2024-05-09T04:11:11.709Z,24.10
2024-05-09T04:12:10.775Z,24.10
2024-05-09T04:13:10.579Z,24.10
2024-05-09T04:14:10.605Z,24.10
2024-05-09T04:15:13.234Z,24.10
2024-05-09T04:16:11.491Z,24.11
2024-05-09T04:17:10.651Z,24.10
2024-05-09T04:18:10.795Z,24.10
2024-05-09T04:19:10.633Z,24.10
2024-05-09T04:20:18.226Z,24.11
2024-05-09T04:21:11.661Z,24.10
2024-05-09T04:22:10.655Z,24.10
2024-05-09T04:23:10.753Z,24.10
2024-05-09T04:24:10.618Z,24.10
2024-05-09T04:25:10.647Z,24.10
2024-05-09T04:26:10.664Z,24.10
2024-05-09T04:27:10.620Z,24.10
2024-05-09T04:28:10.625Z,24.10
2024-05-09T04:29:10.656Z,24.10
2024-05-09T04:30:18.539Z,24.10
2024-05-09T04:31:11.650Z,24.09
2024-05-09T04:32:10.754Z,24.09
2024-05-09T04:33:12.706Z,24.09
2024-05-09T04:34:10.757Z,24.09
2024-05-09T04:35:10.650Z,24.08
2024-05-09T04:36:10.635Z,24.09
2024-05-09T04:37:10.659Z,24.09
2024-05-09T04:38:18.273Z,24.07
2024-05-09T04:39:18.165Z,24.08
2024-05-09T04:40:27.665Z,24.07
2024-05-09T04:41:19.199Z,24.07
2024-05-09T04:42:18.207Z,24.07
2024-05-09T04:43:18.193Z,24.08
2024-05-09T04:44:18.195Z,24.07
2024-05-09T04:45:18.184Z,24.08
2024-05-09T04:46:18.183Z,24.08
2024-05-09T04:47:18.351Z,24.08
2024-05-09T04:48:18.370Z,24.08
2024-05-09T04:49:18.428Z,24.08
2024-05-09T04:50:29.008Z,24.08
2024-05-09T04:51:19.207Z,24.07
2024-05-09T04:52:18.198Z,24.08
2024-05-09T04:53:18.389Z,24.07
2024-05-09T04:55:18.218Z,24.08
2024-05-09T04:56:18.258Z,24.08
2024-05-09T04:57:18.191Z,24.08
2024-05-09T04:58:18.235Z,24.07
2024-05-09T04:59:18.247Z,24.08
2024-05-09T05:00:28.554Z,24.08
2024-05-09T05:01:19.259Z,24.08
2024-05-09T05:02:18.296Z,24.08
2024-05-09T05:03:18.577Z,24.09
2024-05-09T05:04:18.448Z,24.08
2024-05-09T05:05:18.318Z,24.08
2024-05-09T05:06:18.243Z,24.08
2024-05-09T05:07:18.243Z,24.09
2024-05-09T05:08:19.204Z,24.08
2024-05-09T05:09:18.262Z,24.08
2024-05-09T05:10:25.298Z,24.08
2024-05-09T05:11:19.344Z,24.08
2024-05-09T05:12:18.414Z,24.08
2024-05-09T05:13:19.205Z,24.08
2024-05-09T05:14:18.621Z,24.09
2024-05-09T05:15:18.282Z,24.09
2024-05-09T05:16:18.260Z,24.08
2024-05-09T05:17:18.425Z,24.09
2024-05-09T05:18:18.974Z,24.09
2024-05-09T05:19:18.486Z,24.09
2024-05-09T05:20:27.156Z,24.09
2024-05-09T05:21:19.476Z,24.08
2024-05-09T05:22:18.294Z,24.08
2024-05-09T05:23:18.376Z,24.09
2024-05-09T05:24:18.293Z,24.09
2024-05-09T05:25:18.301Z,24.09
2024-05-09T05:26:18.318Z,24.09
2024-05-09T05:27:18.297Z,24.09
2024-05-09T05:28:18.297Z,24.09
2024-05-09T05:29:20.838Z,24.10
2024-05-09T05:30:25.033Z,24.10
2024-05-09T05:31:19.363Z,24.09
2024-05-09T05:32:18.457Z,24.09
2024-05-09T05:33:18.948Z,24.10
2024-05-09T05:34:18.279Z,24.10
2024-05-09T05:35:18.292Z,24.10
2024-05-09T05:36:18.316Z,24.10
2024-05-09T05:37:18.294Z,24.09
2024-05-09T05:38:18.375Z,24.09
2024-05-09T05:39:18.327Z,24.10
2024-05-09T05:40:27.997Z,24.10
2024-05-09T05:41:19.371Z,24.09
2024-05-09T05:42:18.322Z,24.10
2024-05-09T05:43:18.415Z,24.11
2024-05-09T05:44:18.332Z,24.11
2024-05-09T05:45:18.333Z,24.11
2024-05-09T05:46:18.347Z,24.10
2024-05-09T05:47:18.480Z,24.11
2024-05-09T05:48:18.918Z,24.12
2024-05-09T05:49:18.480Z,24.12
2024-05-09T05:50:27.298Z,24.12
2024-05-09T05:51:19.351Z,24.12
2024-05-09T05:52:18.343Z,24.12
2024-05-09T05:53:18.409Z,24.12
2024-05-09T05:54:18.351Z,24.12
2024-05-09T05:55:18.326Z,24.13
2024-05-09T05:56:18.347Z,24.13
2024-05-09T05:57:18.354Z,24.14
2024-05-09T05:58:18.382Z,24.15
2024-05-09T05:59:18.381Z,24.17
2024-05-09T06:00:29.133Z,24.19
2024-05-09T06:01:19.358Z,24.19
2024-05-09T06:02:18.445Z,24.20
2024-05-09T06:03:18.432Z,24.21
2024-05-09T06:04:18.545Z,24.21
2024-05-09T06:05:18.501Z,24.22
2024-05-09T06:06:18.372Z,24.23
2024-05-09T06:07:18.376Z,24.22
2024-05-09T06:08:18.428Z,24.22
2024-05-09T06:09:18.373Z,24.21
2024-05-09T06:10:25.192Z,24.21
2024-05-09T06:11:19.518Z,24.19
2024-05-09T06:12:18.542Z,24.20
2024-05-09T06:13:18.384Z,24.20
2024-05-09T06:14:18.428Z,24.21
2024-05-09T06:15:18.397Z,24.20
2024-05-09T06:16:18.390Z,24.20
2024-05-09T06:17:18.522Z,24.20
2024-05-09T06:18:18.775Z,24.19
2024-05-09T06:19:18.559Z,24.19
2024-05-09T06:20:23.999Z,24.18
2024-05-09T06:21:19.679Z,24.18
2024-05-09T06:22:18.403Z,24.19
2024-05-09T06:23:18.567Z,24.19
2024-05-09T06:24:18.415Z,24.18
2024-05-09T06:25:18.431Z,24.19
2024-05-09T06:26:18.464Z,24.18
2024-05-09T06:27:18.412Z,24.19
2024-05-09T06:28:18.403Z,24.19
2024-05-09T06:29:18.451Z,24.19
2024-05-09T06:31:18.410Z,24.19
2024-05-09T06:32:18.480Z,24.20
2024-05-09T06:33:18.739Z,24.20
2024-05-09T06:34:18.649Z,24.20
2024-05-09T06:35:18.455Z,24.19
2024-05-09T06:36:18.437Z,24.20
2024-05-09T06:37:18.438Z,24.20
2024-05-09T06:38:18.506Z,24.21
2024-05-09T06:39:18.418Z,24.22
2024-05-09T06:40:25.454Z,24.21
2024-05-09T06:41:19.492Z,24.21
2024-05-09T06:42:18.438Z,24.21
2024-05-09T06:43:19.695Z,24.22
2024-05-09T06:44:18.458Z,24.23
2024-05-09T06:45:18.460Z,24.23
2024-05-09T06:46:18.438Z,24.25
2024-05-09T06:47:18.533Z,24.25
2024-05-09T06:48:19.158Z,24.26
2024-05-09T06:49:18.628Z,24.28
2024-05-09T06:50:23.923Z,24.29
2024-05-09T06:51:19.498Z,24.30
2024-05-09T06:52:18.460Z,24.31
2024-05-09T06:53:18.580Z,24.33
2024-05-09T06:54:18.509Z,24.33
2024-05-09T06:55:18.480Z,24.33
2024-05-09T06:56:18.518Z,24.33
2024-05-09T06:57:18.474Z,24.33
2024-05-09T06:58:18.458Z,24.33
2024-05-09T06:59:18.523Z,24.33
2024-05-09T07:00:26.915Z,24.32
2024-05-09T07:01:19.514Z,24.33
2024-05-09T07:02:18.564Z,24.33
2024-05-09T07:03:19.547Z,24.33
2024-05-09T07:04:18.553Z,24.32
2024-05-09T07:05:18.602Z,24.31
2024-05-09T07:06:18.543Z,24.31
2024-05-09T07:07:18.562Z,24.31
2024-05-09T07:08:18.899Z,24.31
2024-05-09T07:09:18.505Z,24.31
2024-05-09T07:10:25.725Z,24.31
2024-05-09T07:11:19.698Z,24.31
2024-05-09T07:12:18.578Z,24.31
2024-05-09T07:13:18.521Z,24.31
2024-05-09T07:14:18.683Z,24.31
2024-05-09T07:15:18.495Z,24.32
2024-05-09T07:16:18.574Z,24.31
2024-05-09T07:17:18.602Z,24.31
2024-05-09T07:18:19.437Z,24.32
2024-05-09T07:19:18.762Z,24.31
2024-05-09T07:20:23.756Z,24.32
2024-05-09T07:21:19.769Z,24.32
2024-05-09T07:22:18.518Z,24.31
2024-05-09T07:23:18.764Z,24.31
2024-05-09T07:24:18.584Z,24.31
2024-05-09T07:25:18.514Z,24.31
2024-05-09T07:26:18.770Z,24.31
2024-05-09T07:27:18.540Z,24.31
2024-05-09T07:28:18.677Z,24.31
2024-05-09T07:29:18.673Z,24.31
2024-05-09T07:30:23.817Z,24.30
2024-05-09T07:31:19.568Z,24.30
2024-05-09T07:32:18.635Z,24.31
2024-05-09T07:33:19.549Z,24.31
2024-05-09T07:34:18.685Z,24.32
2024-05-09T07:35:18.563Z,24.31
2024-05-09T07:36:18.540Z,24.32
2024-05-09T07:37:18.539Z,24.32
2024-05-09T07:38:18.712Z,24.32
2024-05-09T07:39:18.614Z,24.33
2024-05-09T07:40:28.455Z,24.34
2024-05-09T07:41:19.566Z,24.33
2024-05-09T07:42:18.567Z,24.34
2024-05-09T07:43:18.551Z,24.34
2024-05-09T07:44:18.578Z,24.34
2024-05-09T07:47:14.450Z,24.35
2024-05-09T07:48:29.199Z,24.34
2024-05-09T07:51:31.671Z,24.34
2024-05-09T07:53:38.224Z,24.34
2024-05-09T07:54:19.779Z,24.34
2024-05-09T07:55:18.833Z,24.34
2024-05-09T07:56:20.291Z,24.34
2024-05-09T07:57:18.716Z,24.35
2024-05-09T07:58:18.666Z,24.36
2024-05-09T07:59:18.590Z,24.35
2024-05-09T08:00:23.815Z,24.36
2024-05-09T08:01:20.198Z,24.37
2024-05-09T08:02:18.712Z,24.37
2024-05-09T08:03:18.817Z,24.38
2024-05-09T08:04:18.665Z,24.40
2024-05-09T08:05:18.776Z,24.41
2024-05-09T08:06:18.621Z,24.41
2024-05-09T08:07:18.645Z,24.42
2024-05-09T08:08:18.589Z,24.42
2024-05-09T08:09:21.235Z,24.42
2024-05-09T08:10:22.245Z,24.42
2024-05-09T08:11:19.674Z,24.42
2024-05-09T08:12:18.607Z,24.42
2024-05-09T08:13:18.783Z,24.42
2024-05-09T08:14:18.597Z,24.42
2024-05-09T08:15:18.704Z,24.43
2024-05-09T08:16:18.681Z,24.43
2024-05-09T08:17:18.672Z,24.43
2024-05-09T08:18:18.702Z,24.44
2024-05-09T08:19:18.716Z,24.44
2024-05-09T08:20:26.875Z,24.44
2024-05-09T08:21:19.592Z,24.44
2024-05-09T08:22:18.636Z,24.44
2024-05-09T08:23:18.606Z,24.45
2024-05-09T08:24:18.647Z,24.46
2024-05-09T08:25:18.696Z,24.47
2024-05-09T08:26:18.654Z,24.47
2024-05-09T08:27:18.636Z,24.48
2024-05-09T08:28:18.716Z,24.48
2024-05-09T08:29:18.613Z,24.48
2024-05-09T08:30:24.938Z,24.49
2024-05-09T08:31:19.757Z,24.51
2024-05-09T08:32:18.658Z,24.52
2024-05-09T08:33:18.719Z,24.52
2024-05-09T08:34:18.782Z,24.52
2024-05-09T08:35:18.653Z,24.53
2024-05-09T08:36:18.628Z,24.53
2024-05-09T08:37:22.518Z,24.54
2024-05-09T08:38:19.670Z,24.54
2024-05-09T08:39:18.656Z,24.55
2024-05-09T08:40:27.271Z,24.56
2024-05-09T08:41:19.662Z,24.55
2024-05-09T08:42:18.764Z,24.57
2024-05-09T08:43:18.859Z,24.58
2024-05-09T08:44:18.697Z,24.59
2024-05-09T08:45:18.663Z,24.58
2024-05-09T08:46:19.063Z,24.57
2024-05-09T08:47:18.712Z,24.57
2024-05-09T08:48:18.957Z,24.57
2024-05-09T08:49:18.744Z,24.57
2024-05-09T08:50:28.912Z,24.58
2024-05-09T08:51:19.690Z,24.57
2024-05-09T08:52:18.829Z,24.57
2024-05-09T08:53:18.689Z,24.58
2024-05-09T08:54:18.685Z,24.58
2024-05-09T08:55:18.697Z,24.59
2024-05-09T08:56:18.686Z,24.60
2024-05-09T08:57:18.737Z,24.60
2024-05-09T08:58:18.744Z,24.60
2024-05-09T08:59:18.710Z,24.61
2024-05-09T09:00:29.245Z,24.61
2024-05-09T09:01:19.909Z,24.61
2024-05-09T09:02:19.215Z,24.60
2024-05-09T09:03:19.246Z,24.61
2024-05-09T09:04:18.878Z,24.62
2024-05-09T09:05:18.814Z,24.62
2024-05-09T09:06:18.741Z,24.62
2024-05-09T09:07:18.798Z,24.62
2024-05-09T09:08:18.708Z,24.62
2024-05-09T09:09:18.713Z,24.64
2024-05-09T09:10:28.938Z,24.64
2024-05-09T09:11:19.768Z,24.65
2024-05-09T09:12:18.712Z,24.65
2024-05-09T09:13:18.773Z,24.65
2024-05-09T09:14:18.707Z,24.65
2024-05-09T09:15:18.734Z,24.66
2024-05-09T09:16:18.971Z,24.65
2024-05-09T09:17:18.790Z,24.66
2024-05-09T09:18:19.377Z,24.66
2024-05-09T09:19:18.968Z,24.66
2024-05-09T09:20:25.964Z,24.67
2024-05-09T09:21:19.732Z,24.67
2024-05-09T09:22:18.774Z,24.67
2024-05-09T09:23:18.766Z,24.66
2024-05-09T09:24:18.746Z,24.67
2024-05-09T09:25:18.791Z,24.67
2024-05-09T09:26:18.737Z,24.67
2024-05-09T09:27:18.741Z,24.67
2024-05-09T09:28:18.791Z,24.68
2024-05-09T09:29:18.736Z,24.69
2024-05-09T09:30:31.657Z,24.69
2024-05-09T09:31:19.807Z,24.70
2024-05-09T09:32:18.926Z,24.68
2024-05-09T09:33:18.960Z,24.69
2024-05-09T09:34:19.034Z,24.69
2024-05-09T09:35:18.787Z,24.69
2024-05-09T09:36:18.788Z,24.69
2024-05-09T09:37:18.851Z,24.69
2024-05-09T09:38:18.758Z,24.69
2024-05-09T09:39:18.805Z,24.69
2024-05-09T09:40:22.219Z,24.69
2024-05-09T09:41:19.808Z,24.68
2024-05-09T09:42:18.759Z,24.69
2024-05-09T09:43:18.935Z,24.70
2024-05-09T09:44:18.790Z,24.71
2024-05-09T09:45:18.775Z,24.71
2024-05-09T09:46:18.855Z,24.71
2024-05-09T09:47:19.065Z,24.70
2024-05-09T09:48:18.899Z,24.72
2024-05-09T09:49:19.004Z,24.72
2024-05-09T09:50:27.287Z,24.72
2024-05-09T09:51:19.811Z,24.71
2024-05-09T09:52:18.995Z,24.71
2024-05-09T09:53:18.819Z,24.71
2024-05-09T09:54:18.824Z,24.71
2024-05-09T09:55:18.983Z,24.71
2024-05-09T09:56:18.850Z,24.71
2024-05-09T09:57:18.830Z,24.72
2024-05-09T09:58:18.947Z,24.72
2024-05-09T09:59:18.808Z,24.71
2024-05-09T10:00:24.539Z,24.72
2024-05-09T10:01:20.011Z,24.71
2024-05-09T10:02:19.086Z,24.71
2024-05-09T10:03:19.224Z,24.71
2024-05-09T10:04:19.131Z,24.72
2024-05-09T10:05:19.021Z,24.72
2024-05-09T10:06:18.929Z,24.72
2024-05-09T10:07:18.886Z,24.73
2024-05-09T10:08:18.861Z,24.73
2024-05-09T10:09:18.820Z,24.73
2024-05-09T10:10:26.904Z,24.73
2024-05-09T10:11:20.021Z,24.74
2024-05-09T10:12:18.872Z,24.75
2024-05-09T10:13:19.020Z,24.75
2024-05-09T10:14:18.844Z,24.74
2024-05-09T10:15:18.852Z,24.74
2024-05-09T10:16:19.016Z,24.75
2024-05-09T10:17:18.935Z,24.75
2024-05-09T10:18:19.060Z,24.75
2024-05-09T10:19:19.142Z,24.75
2024-05-09T10:20:24.670Z,24.76
2024-05-09T10:21:19.891Z,24.76
2024-05-09T10:22:18.915Z,24.76
2024-05-09T10:23:18.888Z,24.76
2024-05-09T10:24:18.845Z,24.76
2024-05-09T10:25:18.970Z,24.76
2024-05-09T10:26:18.873Z,24.77
2024-05-09T10:27:18.881Z,24.76
2024-05-09T10:28:18.968Z,24.76
2024-05-09T10:29:18.859Z,24.76
2024-05-09T10:30:26.084Z,24.75
2024-05-09T10:31:19.930Z,24.76
2024-05-09T10:32:19.090Z,24.76
2024-05-09T10:33:19.037Z,24.77
2024-05-09T10:34:19.215Z,24.77
2024-05-09T10:35:18.878Z,24.77
2024-05-09T10:36:18.910Z,24.77
2024-05-09T10:37:18.888Z,24.77
2024-05-09T10:38:18.890Z,24.78
2024-05-09T10:39:18.885Z,24.78
2024-05-09T10:40:26.066Z,24.78
2024-05-09T10:41:19.912Z,24.77
2024-05-09T10:42:18.923Z,24.77
2024-05-09T10:43:18.967Z,24.77
2024-05-09T10:44:18.919Z,24.78
2024-05-09T10:45:18.891Z,24.78
2024-05-09T10:46:19.288Z,24.78
2024-05-09T10:47:18.976Z,24.79
2024-05-09T10:48:19.042Z,24.78
2024-05-09T10:49:19.053Z,24.79
2024-05-09T10:50:25.667Z,24.79
2024-05-09T10:51:19.991Z,24.78
2024-05-09T10:52:19.032Z,24.78
2024-05-09T10:53:18.916Z,24.79
2024-05-09T10:54:18.898Z,24.79
2024-05-09T10:55:19.018Z,24.78
2024-05-09T10:56:18.937Z,24.78
2024-05-09T10:57:18.917Z,24.79
2024-05-09T10:58:19.046Z,24.79
2024-05-09T10:59:18.913Z,24.78
2024-05-09T11:00:27.386Z,24.79
2024-05-09T11:01:20.045Z,24.79
2024-05-09T11:02:19.033Z,24.79
2024-05-09T11:03:18.983Z,24.79
2024-05-09T11:04:19.091Z,24.79
2024-05-09T11:05:19.224Z,24.80
2024-05-09T11:06:18.952Z,24.79
2024-05-09T11:07:19.028Z,24.80
2024-05-09T11:08:18.955Z,24.80
2024-05-09T11:09:18.966Z,24.80
2024-05-09T11:10:27.243Z,24.81
2024-05-09T11:11:19.973Z,24.80
2024-05-09T11:12:20.627Z,24.79
2024-05-09T11:13:19.081Z,24.81
2024-05-09T11:14:18.982Z,24.81
2024-05-09T11:15:19.083Z,24.81
2024-05-09T11:16:19.397Z,24.80
2024-05-09T11:17:19.186Z,24.82
2024-05-09T11:18:21.002Z,24.81
2024-05-09T11:19:19.414Z,24.81
2024-05-09T11:20:26.776Z,24.81
2024-05-09T11:21:20.101Z,24.81
2024-05-09T11:22:19.235Z,24.82
2024-05-09T11:23:19.099Z,24.82
2024-05-09T11:24:19.102Z,24.82
2024-05-09T11:25:19.288Z,24.83
2024-05-09T11:26:19.110Z,24.82
2024-05-09T11:27:19.127Z,24.82
2024-05-09T11:28:19.238Z,24.83
2024-05-09T11:29:19.826Z,24.82
2024-05-09T11:31:19.458Z,24.82
2024-05-09T11:32:19.179Z,24.83
2024-05-09T11:33:19.302Z,24.83
2024-05-09T11:34:19.257Z,24.83
2024-05-09T11:35:19.137Z,24.84
2024-05-09T11:36:19.125Z,24.83
2024-05-09T11:37:19.310Z,24.84
2024-05-09T11:38:19.135Z,24.83
2024-05-09T11:39:19.126Z,24.83
2024-05-09T11:40:25.305Z,24.83
2024-05-09T11:41:20.146Z,24.83
2024-05-09T11:42:19.156Z,24.82
2024-05-09T11:43:19.324Z,24.84
2024-05-09T11:44:19.151Z,24.83
2024-05-09T11:45:19.136Z,24.84
2024-05-09T11:46:19.268Z,24.84
2024-05-09T11:47:19.193Z,24.84
2024-05-09T11:48:19.287Z,24.84
2024-05-09T11:49:19.269Z,24.84
2024-05-09T11:50:27.117Z,24.84
2024-05-09T11:51:20.156Z,24.84
2024-05-09T11:52:19.177Z,24.84
2024-05-09T11:53:19.170Z,24.84
2024-05-09T11:54:19.141Z,24.84
2024-05-09T11:55:19.327Z,24.85
2024-05-09T11:56:19.172Z,24.85
2024-05-09T11:57:19.174Z,24.85
2024-05-09T11:58:19.548Z,24.85
2024-05-09T11:59:19.181Z,24.85
2024-05-09T12:00:28.981Z,24.85
2024-05-09T12:01:21.031Z,24.85
2024-05-09T12:02:19.428Z,24.85
2024-05-09T12:03:19.453Z,24.85
2024-05-09T12:04:19.550Z,24.85
2024-05-09T12:05:19.716Z,24.85
2024-05-09T12:06:19.359Z,24.85
2024-05-09T12:07:19.441Z,24.86
2024-05-09T12:08:19.422Z,24.85
2024-05-09T12:09:19.500Z,24.83
2024-05-09T12:10:22.563Z,24.83
2024-05-09T12:11:20.568Z,24.82
2024-05-09T12:12:19.469Z,24.82
2024-05-09T12:13:19.590Z,24.82
2024-05-09T12:14:19.513Z,24.82
2024-05-09T12:15:19.518Z,24.81
2024-05-09T12:16:19.732Z,24.82
2024-05-09T12:17:19.568Z,24.82
2024-05-09T12:18:19.520Z,24.82
2024-05-09T12:19:19.520Z,24.83
2024-05-09T12:20:28.334Z,24.84
2024-05-09T12:21:20.489Z,24.82
2024-05-09T12:22:19.494Z,24.82
2024-05-09T12:23:19.489Z,24.82
2024-05-09T12:24:19.470Z,24.83
2024-05-09T12:25:19.545Z,24.83
2024-05-09T12:26:19.517Z,24.83
2024-05-09T12:27:19.502Z,24.85
2024-05-09T12:28:19.747Z,24.85
2024-05-09T12:29:19.538Z,24.83
2024-05-09T12:30:32.147Z,24.83
2024-05-09T12:31:20.551Z,24.82
2024-05-09T12:32:19.553Z,24.82
2024-05-09T12:33:19.788Z,24.81
2024-05-09T12:34:19.552Z,24.81
2024-05-09T12:35:19.519Z,24.81
2024-05-09T12:36:19.524Z,24.80
2024-05-09T12:37:19.568Z,24.80
2024-05-09T12:38:19.542Z,24.80
2024-05-09T12:39:19.548Z,24.80
2024-05-09T12:40:30.628Z,24.79
2024-05-09T12:41:20.543Z,24.79
2024-05-09T12:42:27.042Z,24.79
2024-05-09T12:43:20.675Z,24.78
2024-05-09T12:44:19.519Z,24.78
2024-05-09T12:45:19.532Z,24.79
2024-05-09T12:46:19.674Z,24.79
2024-05-09T12:47:19.586Z,24.78
2024-05-09T12:48:19.701Z,24.78
2024-05-09T12:49:20.256Z,24.78
2024-05-09T12:50:28.959Z,24.78
2024-05-09T12:51:20.554Z,24.77
2024-05-09T12:52:19.571Z,24.78
2024-05-09T12:53:19.581Z,24.77
2024-05-09T12:54:19.578Z,24.78
2024-05-09T12:55:19.625Z,24.78
2024-05-09T12:56:19.528Z,24.77
2024-05-09T12:57:19.549Z,24.78
2024-05-09T12:58:19.805Z,24.77
2024-05-09T12:59:19.579Z,24.78
2024-05-09T13:00:24.173Z,24.78